sensor_id;sensor_type;location;lat;lon;timestamp;temperature;humidity
11093;DHT22;5600;50.864;6.102;2023-03-14T00:01:32;12.30;99.90
11093;DHT22;5600;50.864;6.102;2023-03-14T00:04:33;12.10;99.90
11093;DHT22;5600;50.864;6.102;2023-03-14T00:07:35;11.90;99.90
11093;DHT22;5600;50.864;6.102;2023-03-14T00:10:37;11.90;99.90
11093;DHT22;5600;50.864;6.102;2023-03-14T00:13:38;11.20;99.90
11093;DHT22;5600;50.864;6.102;2023-03-14T00:16:39;11.10;99.90
11093;DHT22;5600;50.864;6.102;2023-03-14T00:19:40;10.50;99.90
11093;DHT22;5600;50.864;6.102;2023-03-14T00:22:41;10.20;99.90
11093;DHT22;5600;50.864;6.102;2023-03-14T00:25:42;9.90;99.90
11093;DHT22;5600;50.864;6.102;2023-03-14T00:28:43;9.60;99.90
11093;DHT22;5600;50.864;6.102;2023-03-14T00:31:44;9.50;99.90
11093;DHT22;5600;50.864;6.102;2023-03-14T00:34:45;9.40;99.90
11093;DHT22;5600;50.864;6.102;2023-03-14T00:37:45;9.30;99.90
11093;DHT22;5600;50.864;6.102;2023-03-14T00:40:46;9.30;99.90
11093;DHT22;5600;50.864;6.102;2023-03-14T00:43:46;9.30;99.90
11093;DHT22;5600;50.864;6.102;2023-03-14T00:46:47;9.30;99.90
11093;DHT22;5600;50.864;6.102;2023-03-14T00:49:48;9.30;99.90
11093;DHT22;5600;50.864;6.102;2023-03-14T00:52:48;9.40;99.90
11093;DHT22;5600;50.864;6.102;2023-03-14T00:55:50;9.50;99.90
11093;DHT22;5600;50.864;6.102;2023-03-14T00:58:54;9.50;99.90
11093;DHT22;5600;50.864;6.102;2023-03-14T01:01:55;9.50;99.90
11093;DHT22;5600;50.864;6.102;2023-03-14T01:04:56;9.60;99.90
11093;DHT22;5600;50.864;6.102;2023-03-14T01:07:57;9.60;99.90
11093;DHT22;5600;50.864;6.102;2023-03-14T01:10:57;9.60;99.90
11093;DHT22;5600;50.864;6.102;2023-03-14T01:13:58;9.60;99.90
11093;DHT22;5600;50.864;6.102;2023-03-14T01:17:02;9.60;99.90
11093;DHT22;5600;50.864;6.102;2023-03-14T01:20:03;9.60;99.90
11093;DHT22;5600;50.864;6.102;2023-03-14T01:23:05;9.60;99.90
11093;DHT22;5600;50.864;6.102;2023-03-14T01:26:09;9.60;99.90
11093;DHT22;5600;50.864;6.102;2023-03-14T01:29:11;9.60;99.90
11093;DHT22;5600;50.864;6.102;2023-03-14T01:32:13;9.60;99.90
11093;DHT22;5600;50.864;6.102;2023-03-14T01:35:14;9.60;99.90
11093;DHT22;5600;50.864;6.102;2023-03-14T01:38:15;9.60;99.90
11093;DHT22;5600;50.864;6.102;2023-03-14T01:41:19;9.40;99.90
11093;DHT22;5600;50.864;6.102;2023-03-14T01:44:21;9.60;99.90
11093;DHT22;5600;50.864;6.102;2023-03-14T01:47:22;9.70;99.90
11093;DHT22;5600;50.864;6.102;2023-03-14T01:50:23;9.70;99.90
11093;DHT22;5600;50.864;6.102;2023-03-14T01:53:24;9.80;99.90
11093;DHT22;5600;50.864;6.102;2023-03-14T01:56:24;9.70;99.90
11093;DHT22;5600;50.864;6.102;2023-03-14T01:59:26;9.80;99.90
11093;DHT22;5600;50.864;6.102;2023-03-14T02:02:30;9.80;99.90
11093;DHT22;5600;50.864;6.102;2023-03-14T02:05:37;9.80;99.90
11093;DHT22;5600;50.864;6.102;2023-03-14T02:08:51;9.70;99.90
11093;DHT22;5600;50.864;6.102;2023-03-14T02:11:57;9.60;99.90
11093;DHT22;5600;50.864;6.102;2023-03-14T02:15:17;9.70;99.90
11093;DHT22;5600;50.864;6.102;2023-03-14T02:18:53;9.60;99.90
11093;DHT22;5600;50.864;6.102;2023-03-14T02:22:08;9.60;99.90
11093;DHT22;5600;50.864;6.102;2023-03-14T02:29:07;9.60;99.90
11093;DHT22;5600;50.864;6.102;2023-03-14T02:32:08;9.70;99.90
11093;DHT22;5600;50.864;6.102;2023-03-14T02:35:15;9.90;99.90
11093;DHT22;5600;50.864;6.102;2023-03-14T02:41:25;9.90;99.90
11093;DHT22;5600;50.864;6.102;2023-03-14T02:44:34;10.00;99.90
11093;DHT22;5600;50.864;6.102;2023-03-14T02:47:39;10.00;99.90
11093;DHT22;5600;50.864;6.102;2023-03-14T02:50:44;10.00;99.90
11093;DHT22;5600;50.864;6.102;2023-03-14T02:53:45;10.00;99.90
11093;DHT22;5600;50.864;6.102;2023-03-14T02:56:47;9.90;99.90
11093;DHT22;5600;50.864;6.102;2023-03-14T02:59:48;9.80;99.90
11093;DHT22;5600;50.864;6.102;2023-03-14T03:02:53;9.70;99.90
11093;DHT22;5600;50.864;6.102;2023-03-14T03:05:55;9.70;99.90
11093;DHT22;5600;50.864;6.102;2023-03-14T03:08:56;9.70;99.90
11093;DHT22;5600;50.864;6.102;2023-03-14T03:11:57;9.60;99.90
11093;DHT22;5600;50.864;6.102;2023-03-14T03:15:02;9.50;99.90
11093;DHT22;5600;50.864;6.102;2023-03-14T03:18:04;9.50;99.90
11093;DHT22;5600;50.864;6.102;2023-03-14T03:21:04;9.50;99.90
11093;DHT22;5600;50.864;6.102;2023-03-14T03:24:06;9.40;99.90
11093;DHT22;5600;50.864;6.102;2023-03-14T03:27:08;9.40;99.90
11093;DHT22;5600;50.864;6.102;2023-03-14T03:30:16;9.40;99.90
11093;DHT22;5600;50.864;6.102;2023-03-14T03:36:23;9.40;99.90
11093;DHT22;5600;50.864;6.102;2023-03-14T03:39:24;9.30;99.90
11093;DHT22;5600;50.864;6.102;2023-03-14T03:42:26;9.30;99.90
11093;DHT22;5600;50.864;6.102;2023-03-14T03:45:28;9.30;99.90
11093;DHT22;5600;50.864;6.102;2023-03-14T03:48:30;9.30;99.90
11093;DHT22;5600;50.864;6.102;2023-03-14T03:51:31;9.30;99.90
11093;DHT22;5600;50.864;6.102;2023-03-14T03:54:32;9.40;99.90
11093;DHT22;5600;50.864;6.102;2023-03-14T03:57:33;9.40;99.90
11093;DHT22;5600;50.864;6.102;2023-03-14T04:00:34;9.40;99.90
11093;DHT22;5600;50.864;6.102;2023-03-14T04:03:35;9.30;99.90
11093;DHT22;5600;50.864;6.102;2023-03-14T04:06:37;9.30;99.90
11093;DHT22;5600;50.864;6.102;2023-03-14T04:09:38;9.30;99.90
11093;DHT22;5600;50.864;6.102;2023-03-14T04:12:56;9.20;99.90
11093;DHT22;5600;50.864;6.102;2023-03-14T04:16:01;9.30;99.90
11093;DHT22;5600;50.864;6.102;2023-03-14T04:19:03;9.20;99.90
11093;DHT22;5600;50.864;6.102;2023-03-14T04:22:05;9.30;99.90
11093;DHT22;5600;50.864;6.102;2023-03-14T04:25:11;9.30;99.90
11093;DHT22;5600;50.864;6.102;2023-03-14T04:28:17;9.30;99.90
11093;DHT22;5600;50.864;6.102;2023-03-14T04:31:19;9.30;99.90
11093;DHT22;5600;50.864;6.102;2023-03-14T04:34:20;9.30;99.90
11093;DHT22;5600;50.864;6.102;2023-03-14T04:37:26;9.30;99.90
11093;DHT22;5600;50.864;6.102;2023-03-14T04:40:26;9.40;99.90
11093;DHT22;5600;50.864;6.102;2023-03-14T04:43:32;9.40;99.90
11093;DHT22;5600;50.864;6.102;2023-03-14T04:46:42;9.50;99.90
11093;DHT22;5600;50.864;6.102;2023-03-14T04:49:44;9.50;99.90
11093;DHT22;5600;50.864;6.102;2023-03-14T04:52:48;9.50;99.90
11093;DHT22;5600;50.864;6.102;2023-03-14T04:55:51;9.50;99.90
11093;DHT22;5600;50.864;6.102;2023-03-14T04:58:53;9.40;99.90
11093;DHT22;5600;50.864;6.102;2023-03-14T05:01:55;9.40;99.90
11093;DHT22;5600;50.864;6.102;2023-03-14T05:05:08;9.40;99.90
11093;DHT22;5600;50.864;6.102;2023-03-14T05:08:18;9.30;99.90
11093;DHT22;5600;50.864;6.102;2023-03-14T05:11:37;9.30;99.90
11093;DHT22;5600;50.864;6.102;2023-03-14T05:14:46;9.40;99.90
11093;DHT22;5600;50.864;6.102;2023-03-14T05:18:09;9.40;99.90
11093;DHT22;5600;50.864;6.102;2023-03-14T05:21:20;9.30;99.90
11093;DHT22;5600;50.864;6.102;2023-03-14T05:24:34;9.30;99.90
11093;DHT22;5600;50.864;6.102;2023-03-14T05:27:48;9.30;99.90
11093;DHT22;5600;50.864;6.102;2023-03-14T05:31:08;9.30;99.90
11093;DHT22;5600;50.864;6.102;2023-03-14T05:34:21;9.10;99.90
11093;DHT22;5600;50.864;6.102;2023-03-14T05:37:51;9.20;99.90
11093;DHT22;5600;50.864;6.102;2023-03-14T05:41:17;9.10;99.90
11093;DHT22;5600;50.864;6.102;2023-03-14T05:44:33;9.20;99.90
11093;DHT22;5600;50.864;6.102;2023-03-14T05:47:58;9.20;99.90
11093;DHT22;5600;50.864;6.102;2023-03-14T05:51:18;9.10;99.90
11093;DHT22;5600;50.864;6.102;2023-03-14T05:54:42;9.20;99.90
11093;DHT22;5600;50.864;6.102;2023-03-14T05:58:03;9.30;99.90
11093;DHT22;5600;50.864;6.102;2023-03-14T06:01:40;9.40;99.90
11093;DHT22;5600;50.864;6.102;2023-03-14T06:08:04;9.60;99.90
11093;DHT22;5600;50.864;6.102;2023-03-14T06:11:07;9.60;99.90
11093;DHT22;5600;50.864;6.102;2023-03-14T06:14:09;9.60;99.90
11093;DHT22;5600;50.864;6.102;2023-03-14T06:17:14;9.60;99.90
11093;DHT22;5600;50.864;6.102;2023-03-14T06:20:36;9.70;99.90
11093;DHT22;5600;50.864;6.102;2023-03-14T06:23:40;9.70;99.90
11093;DHT22;5600;50.864;6.102;2023-03-14T06:29:44;9.80;99.90
11093;DHT22;5600;50.864;6.102;2023-03-14T06:32:45;9.80;99.90
11093;DHT22;5600;50.864;6.102;2023-03-14T06:35:48;9.80;99.90
11093;DHT22;5600;50.864;6.102;2023-03-14T06:38:49;9.90;99.90
11093;DHT22;5600;50.864;6.102;2023-03-14T06:41:51;9.90;99.90
11093;DHT22;5600;50.864;6.102;2023-03-14T06:44:52;9.90;99.90
11093;DHT22;5600;50.864;6.102;2023-03-14T06:47:54;9.90;99.90
11093;DHT22;5600;50.864;6.102;2023-03-14T06:50:59;9.90;99.90
11093;DHT22;5600;50.864;6.102;2023-03-14T06:54:00;10.00;99.90
11093;DHT22;5600;50.864;6.102;2023-03-14T06:57:03;10.10;99.90
11093;DHT22;5600;50.864;6.102;2023-03-14T07:00:06;10.10;99.90
11093;DHT22;5600;50.864;6.102;2023-03-14T07:03:08;10.20;99.90
11093;DHT22;5600;50.864;6.102;2023-03-14T07:06:15;10.20;99.90
11093;DHT22;5600;50.864;6.102;2023-03-14T07:09:16;10.20;99.90
11093;DHT22;5600;50.864;6.102;2023-03-14T07:12:24;10.10;99.90
11093;DHT22;5600;50.864;6.102;2023-03-14T07:15:25;10.10;99.90
11093;DHT22;5600;50.864;6.102;2023-03-14T07:18:31;10.20;99.90
11093;DHT22;5600;50.864;6.102;2023-03-14T07:21:32;10.10;99.90
11093;DHT22;5600;50.864;6.102;2023-03-14T07:24:36;10.10;99.90
11093;DHT22;5600;50.864;6.102;2023-03-14T07:27:37;10.10;99.90
11093;DHT22;5600;50.864;6.102;2023-03-14T07:30:38;10.10;99.90
11093;DHT22;5600;50.864;6.102;2023-03-14T07:33:48;10.20;99.90
11093;DHT22;5600;50.864;6.102;2023-03-14T07:36:50;10.30;99.90
11093;DHT22;5600;50.864;6.102;2023-03-14T07:39:51;10.30;99.90
11093;DHT22;5600;50.864;6.102;2023-03-14T07:42:56;10.30;99.90
11093;DHT22;5600;50.864;6.102;2023-03-14T07:46:08;10.40;99.90
11093;DHT22;5600;50.864;6.102;2023-03-14T07:49:10;10.40;99.90
11093;DHT22;5600;50.864;6.102;2023-03-14T07:52:10;10.40;99.90
11093;DHT22;5600;50.864;6.102;2023-03-14T07:55:11;10.50;99.90
11093;DHT22;5600;50.864;6.102;2023-03-14T07:58:14;10.50;99.90
11093;DHT22;5600;50.864;6.102;2023-03-14T08:01:15;10.60;99.90
11093;DHT22;5600;50.864;6.102;2023-03-14T08:04:16;10.80;99.90
11093;DHT22;5600;50.864;6.102;2023-03-14T08:07:17;10.80;99.90
11093;DHT22;5600;50.864;6.102;2023-03-14T08:10:18;10.60;99.90
11093;DHT22;5600;50.864;6.102;2023-03-14T08:13:25;10.40;99.90
11093;DHT22;5600;50.864;6.102;2023-03-14T08:16:26;10.40;99.90
11093;DHT22;5600;50.864;6.102;2023-03-14T08:19:29;10.40;99.90
11093;DHT22;5600;50.864;6.102;2023-03-14T08:22:31;10.40;99.90
11093;DHT22;5600;50.864;6.102;2023-03-14T08:25:31;10.40;99.90
11093;DHT22;5600;50.864;6.102;2023-03-14T08:28:33;10.30;99.90
11093;DHT22;5600;50.864;6.102;2023-03-14T08:31:35;10.30;99.90
11093;DHT22;5600;50.864;6.102;2023-03-14T08:34:36;10.20;99.90
11093;DHT22;5600;50.864;6.102;2023-03-14T08:37:38;10.20;99.90
11093;DHT22;5600;50.864;6.102;2023-03-14T08:40:39;10.30;99.90
11093;DHT22;5600;50.864;6.102;2023-03-14T08:43:39;10.30;99.90
11093;DHT22;5600;50.864;6.102;2023-03-14T08:46:40;10.30;99.90
11093;DHT22;5600;50.864;6.102;2023-03-14T08:49:41;10.20;99.90
11093;DHT22;5600;50.864;6.102;2023-03-14T08:52:42;9.90;99.90
11093;DHT22;5600;50.864;6.102;2023-03-14T08:55:43;9.40;99.90
11093;DHT22;5600;50.864;6.102;2023-03-14T08:58:44;9.10;99.90
11093;DHT22;5600;50.864;6.102;2023-03-14T09:01:45;8.80;99.90
11093;DHT22;5600;50.864;6.102;2023-03-14T09:04:46;8.50;99.90
11093;DHT22;5600;50.864;6.102;2023-03-14T09:10:48;8.20;99.90
11093;DHT22;5600;50.864;6.102;2023-03-14T09:13:49;7.60;99.90
11093;DHT22;5600;50.864;6.102;2023-03-14T09:16:50;8.00;99.90
11093;DHT22;5600;50.864;6.102;2023-03-14T09:19:51;7.90;99.90
11093;DHT22;5600;50.864;6.102;2023-03-14T09:22:52;7.80;99.90
11093;DHT22;5600;50.864;6.102;2023-03-14T09:25:57;7.70;99.90
11093;DHT22;5600;50.864;6.102;2023-03-14T09:28:58;7.70;99.90
11093;DHT22;5600;50.864;6.102;2023-03-14T09:31:59;7.60;99.90
11093;DHT22;5600;50.864;6.102;2023-03-14T09:35:00;7.60;99.90
11093;DHT22;5600;50.864;6.102;2023-03-14T09:41:12;7.70;99.90
11093;DHT22;5600;50.864;6.102;2023-03-14T09:47:16;7.70;99.90
11093;DHT22;5600;50.864;6.102;2023-03-14T09:50:20;7.80;99.90
11093;DHT22;5600;50.864;6.102;2023-03-14T09:53:27;7.80;99.90
11093;DHT22;5600;50.864;6.102;2023-03-14T09:56:32;7.80;99.90
11093;DHT22;5600;50.864;6.102;2023-03-14T09:59:34;7.70;99.90
11093;DHT22;5600;50.864;6.102;2023-03-14T10:02:38;7.70;99.90
11093;DHT22;5600;50.864;6.102;2023-03-14T10:05:41;7.80;99.90
11093;DHT22;5600;50.864;6.102;2023-03-14T10:08:43;7.80;99.90
11093;DHT22;5600;50.864;6.102;2023-03-14T10:11:44;7.80;99.90
11093;DHT22;5600;50.864;6.102;2023-03-14T10:14:51;7.80;99.90
11093;DHT22;5600;50.864;6.102;2023-03-14T10:17:52;7.90;99.90
11093;DHT22;5600;50.864;6.102;2023-03-14T10:21:28;7.90;99.90
11093;DHT22;5600;50.864;6.102;2023-03-14T10:24:34;7.90;99.90
11093;DHT22;5600;50.864;6.102;2023-03-14T10:27:35;8.00;99.90
11093;DHT22;5600;50.864;6.102;2023-03-14T10:33:59;8.10;99.90
11093;DHT22;5600;50.864;6.102;2023-03-14T10:37:24;8.10;99.90
11093;DHT22;5600;50.864;6.102;2023-03-14T10:40:30;8.00;99.90
11093;DHT22;5600;50.864;6.102;2023-03-14T10:43:34;7.90;99.90
11093;DHT22;5600;50.864;6.102;2023-03-14T10:46:36;7.80;99.90
11093;DHT22;5600;50.864;6.102;2023-03-14T10:49:56;7.80;99.90
11093;DHT22;5600;50.864;6.102;2023-03-14T10:53:01;7.70;99.90
11093;DHT22;5600;50.864;6.102;2023-03-14T10:59:12;7.60;99.90
11093;DHT22;5600;50.864;6.102;2023-03-14T11:05:57;7.80;99.90
11093;DHT22;5600;50.864;6.102;2023-03-14T11:25:49;8.50;99.90
11093;DHT22;5600;50.864;6.102;2023-03-14T11:29:12;8.50;99.90
11093;DHT22;5600;50.864;6.102;2023-03-14T11:32:50;8.60;99.90
11093;DHT22;5600;50.864;6.102;2023-03-14T11:36:12;8.50;99.90
11093;DHT22;5600;50.864;6.102;2023-03-14T11:39:17;8.50;99.90
11093;DHT22;5600;50.864;6.102;2023-03-14T11:42:18;8.30;99.90
11093;DHT22;5600;50.864;6.102;2023-03-14T11:45:29;8.20;99.90
11093;DHT22;5600;50.864;6.102;2023-03-14T11:48:41;7.90;99.90
11093;DHT22;5600;50.864;6.102;2023-03-14T11:51:47;7.50;99.90
11093;DHT22;5600;50.864;6.102;2023-03-14T11:54:55;6.40;99.90
11093;DHT22;5600;50.864;6.102;2023-03-14T11:58:08;6.80;99.90
11093;DHT22;5600;50.864;6.102;2023-03-14T12:01:11;6.70;99.90
11093;DHT22;5600;50.864;6.102;2023-03-14T12:04:20;6.60;99.90
11093;DHT22;5600;50.864;6.102;2023-03-14T12:07:29;6.50;99.90
11093;DHT22;5600;50.864;6.102;2023-03-14T12:10:43;6.50;99.90
11093;DHT22;5600;50.864;6.102;2023-03-14T12:13:51;6.50;99.90
11093;DHT22;5600;50.864;6.102;2023-03-14T12:17:07;6.60;99.90
11093;DHT22;5600;50.864;6.102;2023-03-14T12:20:21;6.60;99.90
11093;DHT22;5600;50.864;6.102;2023-03-14T12:23:23;5.60;99.90
11093;DHT22;5600;50.864;6.102;2023-03-14T12:26:27;6.70;99.90
11093;DHT22;5600;50.864;6.102;2023-03-14T12:29:29;6.70;99.90
11093;DHT22;5600;50.864;6.102;2023-03-14T12:32:33;6.70;99.90
11093;DHT22;5600;50.864;6.102;2023-03-14T12:35:37;6.70;99.90
11093;DHT22;5600;50.864;6.102;2023-03-14T12:38:47;6.70;99.90
11093;DHT22;5600;50.864;6.102;2023-03-14T12:42:01;6.80;99.90
11093;DHT22;5600;50.864;6.102;2023-03-14T12:48:25;6.50;99.90
11093;DHT22;5600;50.864;6.102;2023-03-14T12:51:33;6.30;99.90
11093;DHT22;5600;50.864;6.102;2023-03-14T12:55:06;6.20;99.90
11093;DHT22;5600;50.864;6.102;2023-03-14T12:58:21;6.10;99.90
11093;DHT22;5600;50.864;6.102;2023-03-14T13:01:24;6.00;99.90
11093;DHT22;5600;50.864;6.102;2023-03-14T13:04:28;6.00;99.90
11093;DHT22;5600;50.864;6.102;2023-03-14T13:07:35;6.10;99.90
11093;DHT22;5600;50.864;6.102;2023-03-14T13:10:54;6.10;99.90
11093;DHT22;5600;50.864;6.102;2023-03-14T13:13:59;6.10;99.90
11093;DHT22;5600;50.864;6.102;2023-03-14T13:17:00;6.30;99.90
11093;DHT22;5600;50.864;6.102;2023-03-14T13:20:28;6.40;99.90
11093;DHT22;5600;50.864;6.102;2023-03-14T13:23:32;6.50;99.90
11093;DHT22;5600;50.864;6.102;2023-03-14T13:26:41;6.50;99.90
11093;DHT22;5600;50.864;6.102;2023-03-14T13:29:43;6.70;99.90
11093;DHT22;5600;50.864;6.102;2023-03-14T13:32:45;6.60;99.90
11093;DHT22;5600;50.864;6.102;2023-03-14T13:35:59;6.40;99.90
11093;DHT22;5600;50.864;6.102;2023-03-14T13:39:01;6.30;99.90
11093;DHT22;5600;50.864;6.102;2023-03-14T13:42:03;6.10;99.90
11093;DHT22;5600;50.864;6.102;2023-03-14T13:45:04;6.00;99.90
11093;DHT22;5600;50.864;6.102;2023-03-14T13:48:09;5.80;99.90
11093;DHT22;5600;50.864;6.102;2023-03-14T13:51:13;5.80;99.90
11093;DHT22;5600;50.864;6.102;2023-03-14T13:54:16;5.90;99.90
11093;DHT22;5600;50.864;6.102;2023-03-14T13:57:17;5.90;99.90
11093;DHT22;5600;50.864;6.102;2023-03-14T14:00:20;5.80;99.90
11093;DHT22;5600;50.864;6.102;2023-03-14T14:03:22;5.80;99.90
11093;DHT22;5600;50.864;6.102;2023-03-14T14:06:30;5.80;99.90
11093;DHT22;5600;50.864;6.102;2023-03-14T14:09:43;5.80;99.90
11093;DHT22;5600;50.864;6.102;2023-03-14T14:13:00;5.80;99.90
11093;DHT22;5600;50.864;6.102;2023-03-14T14:16:02;5.90;99.90
11093;DHT22;5600;50.864;6.102;2023-03-14T14:19:04;5.90;99.90
11093;DHT22;5600;50.864;6.102;2023-03-14T14:22:05;6.00;99.90
11093;DHT22;5600;50.864;6.102;2023-03-14T14:25:13;6.00;99.90
11093;DHT22;5600;50.864;6.102;2023-03-14T14:28:32;6.10;99.90
11093;DHT22;5600;50.864;6.102;2023-03-14T14:31:33;6.10;99.90
11093;DHT22;5600;50.864;6.102;2023-03-14T14:34:46;6.20;99.90
11093;DHT22;5600;50.864;6.102;2023-03-14T14:37:50;6.20;99.90
11093;DHT22;5600;50.864;6.102;2023-03-14T14:40:59;6.30;99.90
11093;DHT22;5600;50.864;6.102;2023-03-14T14:44:00;6.30;99.90
11093;DHT22;5600;50.864;6.102;2023-03-14T14:47:03;6.40;99.90
11093;DHT22;5600;50.864;6.102;2023-03-14T14:50:19;6.40;99.90
11093;DHT22;5600;50.864;6.102;2023-03-14T14:56:36;6.50;99.90
11093;DHT22;5600;50.864;6.102;2023-03-14T14:59:42;6.60;99.90
11093;DHT22;5600;50.864;6.102;2023-03-14T15:02:48;5.00;99.90
11093;DHT22;5600;50.864;6.102;2023-03-14T15:05:50;6.70;99.90
11093;DHT22;5600;50.864;6.102;2023-03-14T15:08:50;6.80;99.90
11093;DHT22;5600;50.864;6.102;2023-03-14T15:11:52;6.80;99.90
11093;DHT22;5600;50.864;6.102;2023-03-14T15:14:53;6.90;99.90
11093;DHT22;5600;50.864;6.102;2023-03-14T15:17:57;7.00;99.90
11093;DHT22;5600;50.864;6.102;2023-03-14T15:20:58;7.00;99.90
11093;DHT22;5600;50.864;6.102;2023-03-14T15:24:01;7.10;99.90
11093;DHT22;5600;50.864;6.102;2023-03-14T15:27:02;7.20;99.90
11093;DHT22;5600;50.864;6.102;2023-03-14T15:30:03;7.20;99.90
11093;DHT22;5600;50.864;6.102;2023-03-14T15:33:04;7.20;99.90
11093;DHT22;5600;50.864;6.102;2023-03-14T15:36:14;7.20;99.90
11093;DHT22;5600;50.864;6.102;2023-03-14T15:39:16;7.10;99.90
11093;DHT22;5600;50.864;6.102;2023-03-14T15:42:16;7.10;99.90
11093;DHT22;5600;50.864;6.102;2023-03-14T15:45:17;7.10;99.90
11093;DHT22;5600;50.864;6.102;2023-03-14T15:48:20;7.10;99.90
11093;DHT22;5600;50.864;6.102;2023-03-14T15:51:21;7.00;99.90
11093;DHT22;5600;50.864;6.102;2023-03-14T15:54:22;6.90;99.90
11093;DHT22;5600;50.864;6.102;2023-03-14T15:57:23;6.80;99.90
11093;DHT22;5600;50.864;6.102;2023-03-14T16:00:25;6.80;99.90
11093;DHT22;5600;50.864;6.102;2023-03-14T16:03:28;6.60;99.90
11093;DHT22;5600;50.864;6.102;2023-03-14T16:06:29;6.60;99.90
11093;DHT22;5600;50.864;6.102;2023-03-14T16:09:31;6.50;99.90
11093;DHT22;5600;50.864;6.102;2023-03-14T16:12:32;6.40;99.90
11093;DHT22;5600;50.864;6.102;2023-03-14T16:15:33;6.30;99.90
11093;DHT22;5600;50.864;6.102;2023-03-14T16:18:35;6.30;99.90
11093;DHT22;5600;50.864;6.102;2023-03-14T16:21:37;6.10;99.90
11093;DHT22;5600;50.864;6.102;2023-03-14T16:24:38;6.10;99.90
11093;DHT22;5600;50.864;6.102;2023-03-14T16:27:39;6.00;99.90
11093;DHT22;5600;50.864;6.102;2023-03-14T16:30:40;6.00;99.90
11093;DHT22;5600;50.864;6.102;2023-03-14T16:33:41;6.00;99.90
11093;DHT22;5600;50.864;6.102;2023-03-14T16:36:41;6.00;99.90
11093;DHT22;5600;50.864;6.102;2023-03-14T16:39:42;6.00;99.90
11093;DHT22;5600;50.864;6.102;2023-03-14T16:42:43;6.00;99.90
11093;DHT22;5600;50.864;6.102;2023-03-14T16:48:45;6.00;99.90
11093;DHT22;5600;50.864;6.102;2023-03-14T16:51:46;6.00;99.90
11093;DHT22;5600;50.864;6.102;2023-03-14T16:54:46;5.90;99.90
11093;DHT22;5600;50.864;6.102;2023-03-14T16:57:47;5.80;99.90
11093;DHT22;5600;50.864;6.102;2023-03-14T17:00:48;5.80;99.90
11093;DHT22;5600;50.864;6.102;2023-03-14T17:03:50;5.80;99.90
11093;DHT22;5600;50.864;6.102;2023-03-14T17:06:51;5.90;99.90
11093;DHT22;5600;50.864;6.102;2023-03-14T17:09:52;5.90;99.90
11093;DHT22;5600;50.864;6.102;2023-03-14T17:12:54;5.90;99.90
11093;DHT22;5600;50.864;6.102;2023-03-14T17:15:57;5.90;99.90
11093;DHT22;5600;50.864;6.102;2023-03-14T17:18:58;5.90;99.90
11093;DHT22;5600;50.864;6.102;2023-03-14T17:21:59;5.90;99.90
11093;DHT22;5600;50.864;6.102;2023-03-14T17:25:00;5.90;99.90
11093;DHT22;5600;50.864;6.102;2023-03-14T17:28:01;5.90;99.90
11093;DHT22;5600;50.864;6.102;2023-03-14T17:31:12;6.00;99.90
11093;DHT22;5600;50.864;6.102;2023-03-14T17:34:13;6.00;99.90
11093;DHT22;5600;50.864;6.102;2023-03-14T17:37:13;6.00;99.90
11093;DHT22;5600;50.864;6.102;2023-03-14T17:40:14;6.00;99.90
11093;DHT22;5600;50.864;6.102;2023-03-14T17:43:15;5.90;99.90
11093;DHT22;5600;50.864;6.102;2023-03-14T17:46:16;5.90;99.90
11093;DHT22;5600;50.864;6.102;2023-03-14T17:49:17;5.90;99.90
11093;DHT22;5600;50.864;6.102;2023-03-14T17:52:18;5.90;99.90
11093;DHT22;5600;50.864;6.102;2023-03-14T17:55:18;5.90;99.90
11093;DHT22;5600;50.864;6.102;2023-03-14T17:58:19;5.90;99.90
11093;DHT22;5600;50.864;6.102;2023-03-14T18:01:21;5.90;99.90
11093;DHT22;5600;50.864;6.102;2023-03-14T18:04:21;5.80;99.90
11093;DHT22;5600;50.864;6.102;2023-03-14T18:07:22;5.80;99.90
11093;DHT22;5600;50.864;6.102;2023-03-14T18:10:23;5.80;99.90
11093;DHT22;5600;50.864;6.102;2023-03-14T18:13:23;5.80;99.90
11093;DHT22;5600;50.864;6.102;2023-03-14T18:16:24;5.80;99.90
11093;DHT22;5600;50.864;6.102;2023-03-14T18:19:25;5.70;99.90
11093;DHT22;5600;50.864;6.102;2023-03-14T18:22:26;5.60;99.90
11093;DHT22;5600;50.864;6.102;2023-03-14T18:25:27;5.60;99.90
11093;DHT22;5600;50.864;6.102;2023-03-14T18:28:27;5.50;99.90
11093;DHT22;5600;50.864;6.102;2023-03-14T18:31:28;5.60;99.90
11093;DHT22;5600;50.864;6.102;2023-03-14T18:34:29;5.60;99.90
11093;DHT22;5600;50.864;6.102;2023-03-14T18:37:32;5.60;99.90
11093;DHT22;5600;50.864;6.102;2023-03-14T18:40:33;5.60;99.90
11093;DHT22;5600;50.864;6.102;2023-03-14T18:43:34;2.60;99.90
11093;DHT22;5600;50.864;6.102;2023-03-14T18:46:35;5.60;99.90
11093;DHT22;5600;50.864;6.102;2023-03-14T18:49:35;5.60;99.90
11093;DHT22;5600;50.864;6.102;2023-03-14T18:52:36;5.70;99.90
11093;DHT22;5600;50.864;6.102;2023-03-14T18:55:37;5.60;99.90
11093;DHT22;5600;50.864;6.102;2023-03-14T18:58:39;5.60;99.90
11093;DHT22;5600;50.864;6.102;2023-03-14T19:01:40;5.60;99.90
11093;DHT22;5600;50.864;6.102;2023-03-14T19:04:42;5.60;99.90
11093;DHT22;5600;50.864;6.102;2023-03-14T19:07:43;5.60;99.90
11093;DHT22;5600;50.864;6.102;2023-03-14T19:10:44;5.50;99.90
11093;DHT22;5600;50.864;6.102;2023-03-14T19:13:45;5.50;99.90
11093;DHT22;5600;50.864;6.102;2023-03-14T19:16:45;5.50;99.90
11093;DHT22;5600;50.864;6.102;2023-03-14T19:19:46;5.50;99.90
11093;DHT22;5600;50.864;6.102;2023-03-14T19:22:47;5.40;99.90
11093;DHT22;5600;50.864;6.102;2023-03-14T19:25:48;5.30;99.90
11093;DHT22;5600;50.864;6.102;2023-03-14T19:28:49;5.20;99.90
11093;DHT22;5600;50.864;6.102;2023-03-14T19:31:52;5.10;99.90
11093;DHT22;5600;50.864;6.102;2023-03-14T19:34:53;5.10;99.90
11093;DHT22;5600;50.864;6.102;2023-03-14T19:37:54;4.90;99.90
11093;DHT22;5600;50.864;6.102;2023-03-14T19:40:56;5.00;99.90
11093;DHT22;5600;50.864;6.102;2023-03-14T19:43:58;4.90;99.90
11093;DHT22;5600;50.864;6.102;2023-03-14T19:46:58;4.80;99.90
11093;DHT22;5600;50.864;6.102;2023-03-14T19:49:59;4.80;99.90
11093;DHT22;5600;50.864;6.102;2023-03-14T19:53:00;4.70;99.90
11093;DHT22;5600;50.864;6.102;2023-03-14T19:56:01;4.70;99.90
11093;DHT22;5600;50.864;6.102;2023-03-14T19:59:02;4.60;99.90
11093;DHT22;5600;50.864;6.102;2023-03-14T20:02:03;4.60;99.90
11093;DHT22;5600;50.864;6.102;2023-03-14T20:05:04;4.60;99.90
11093;DHT22;5600;50.864;6.102;2023-03-14T20:08:05;4.50;99.90
11093;DHT22;5600;50.864;6.102;2023-03-14T20:11:07;4.30;99.90
11093;DHT22;5600;50.864;6.102;2023-03-14T20:14:08;4.40;99.90
11093;DHT22;5600;50.864;6.102;2023-03-14T20:17:09;4.30;99.90
11093;DHT22;5600;50.864;6.102;2023-03-14T20:20:10;4.20;99.90
11093;DHT22;5600;50.864;6.102;2023-03-14T20:23:11;4.20;99.90
11093;DHT22;5600;50.864;6.102;2023-03-14T20:26:13;4.10;99.90
11093;DHT22;5600;50.864;6.102;2023-03-14T20:29:14;4.10;99.90
11093;DHT22;5600;50.864;6.102;2023-03-14T20:32:15;4.00;99.90
11093;DHT22;5600;50.864;6.102;2023-03-14T20:35:17;4.00;99.90
11093;DHT22;5600;50.864;6.102;2023-03-14T20:38:23;3.90;99.90
11093;DHT22;5600;50.864;6.102;2023-03-14T20:41:26;3.90;99.90
11093;DHT22;5600;50.864;6.102;2023-03-14T20:44:27;4.00;99.90
11093;DHT22;5600;50.864;6.102;2023-03-14T20:47:27;4.20;99.90
11093;DHT22;5600;50.864;6.102;2023-03-14T20:50:28;4.00;99.90
11093;DHT22;5600;50.864;6.102;2023-03-14T20:53:29;3.90;99.90
11093;DHT22;5600;50.864;6.102;2023-03-14T20:56:29;3.90;99.90
11093;DHT22;5600;50.864;6.102;2023-03-14T21:02:32;3.80;99.90
11093;DHT22;5600;50.864;6.102;2023-03-14T21:05:34;3.70;99.90